Terminal Aerodrome Forecast
Issued by NWS Wichita, KS

Home | Current Version | Previous Version | Text Only | Print | Product List | Glossary On
Versions: 1 2 3 4 5 6 7 8 9 10 11 12 13 14 15 16 17 18 19 20 21 22 23 24 25 26
000
FTUS43 KICT 241422 AAB
TAFICT
TAF AMD
KICT 241422Z 2414/2512 VRB04KT P6SM SCT015 BKN080
     FM241700 17010KT P6SM VCSH SCT015 BKN025=

USA.gov is the U.S. government's official web portal to all federal, state and local government web resources and services.